Terminal Aerodrome Forecast
Issued by NWS Wilmington, OH

Current Version | Previous Version | Text Only | Print | Product List | Glossary Off
Versions: 1 2 3 4 5 6 7 8 9 10 11 12 13 14 15 16 17 18 19 20 21 22 23 24 25

000
FTUS41 KILN 172000 AAA
TAFILN
TAF AMD
KILN 172011Z 1720/1818 25014G24KT P6SM SCT040
     FM180000 26013KT P6SM OVC035
     FM180700 28012KT P6SM OVC025
     FM181300 30013G23KT P6SM OVC022=

USA.gov is the U.S. government's official web portal to all federal, state and local government web resources and services.